createdAt,value
2023-04-07T00:00:35.442Z,9.95
2023-04-07T00:03:07.364Z,10.93
2023-04-07T00:05:36.228Z,10.07
2023-04-07T00:08:04.779Z,12.00
2023-04-07T00:10:33.507Z,10.77
2023-04-07T00:13:02.261Z,11.85
2023-04-07T00:15:30.897Z,11.15
2023-04-07T00:17:59.621Z,10.10
2023-04-07T00:20:29.752Z,10.00
2023-04-07T00:22:58.319Z,10.30
2023-04-07T00:25:27.049Z,12.57
2023-04-07T00:27:55.661Z,12.07
2023-04-07T00:30:24.554Z,11.20
2023-04-07T00:32:53.363Z,10.75
2023-04-07T00:35:22.184Z,11.45
2023-04-07T00:37:52.488Z,11.27
2023-04-07T00:40:21.176Z,12.80
2023-04-07T00:42:49.842Z,10.38
2023-04-07T00:45:18.585Z,12.27
2023-04-07T00:47:47.408Z,10.63
2023-04-07T00:50:16.218Z,13.07
2023-04-07T00:52:44.807Z,10.68
2023-04-07T00:55:15.582Z,10.35
2023-04-07T00:57:46.559Z,12.13
2023-04-07T01:00:16.393Z,13.55
2023-04-07T01:02:49.417Z,14.35
2023-04-07T01:05:24.589Z,11.32
2023-04-07T01:08:04.868Z,12.65
2023-04-07T01:10:42.868Z,14.00
2023-04-07T01:13:24.525Z,12.18
2023-04-07T01:15:59.261Z,12.02
2023-04-07T01:18:33.623Z,11.90
2023-04-07T01:21:07.090Z,14.05
2023-04-07T01:23:50.597Z,12.93
2023-04-07T01:26:24.104Z,13.82
2023-04-07T01:29:35.634Z,12.48
2023-04-07T01:32:08.452Z,11.82
2023-04-07T01:34:39.426Z,12.85
2023-04-07T01:37:09.173Z,10.93
2023-04-07T01:39:39.601Z,11.48
2023-04-07T01:42:09.287Z,11.60
2023-04-07T01:44:38.258Z,9.30
2023-04-07T01:47:08.899Z,12.90
2023-04-07T01:49:39.043Z,11.27
2023-04-07T01:52:08.326Z,12.25
2023-04-07T01:54:37.957Z,13.73
2023-04-07T01:57:06.585Z,11.68
2023-04-07T01:59:35.263Z,13.27
2023-04-07T02:02:05.330Z,10.82
2023-04-07T02:04:41.534Z,11.15
2023-04-07T02:07:16.359Z,10.23
2023-04-07T02:09:50.967Z,11.60
2023-04-07T02:12:20.576Z,15.35
2023-04-07T02:15:02.368Z,14.63
2023-04-07T02:17:34.901Z,13.45
2023-04-07T02:20:06.758Z,12.13
2023-04-07T02:22:35.985Z,16.48
2023-04-07T02:25:04.946Z,16.67
2023-04-07T02:27:33.511Z,17.52
2023-04-07T02:30:02.126Z,16.40
2023-04-07T02:32:31.075Z,17.35
2023-04-07T02:34:59.799Z,21.38
2023-04-07T02:37:29.870Z,20.75
2023-04-07T02:39:58.483Z,19.60
2023-04-07T02:42:27.054Z,21.45
2023-04-07T02:44:57.278Z,21.63
2023-04-07T02:47:26.578Z,22.15
2023-04-07T02:49:55.132Z,20.55
2023-04-07T02:52:23.734Z,22.23
2023-04-07T02:54:53.682Z,26.38
2023-04-07T02:57:25.951Z,21.27
2023-04-07T02:59:58.897Z,23.20
2023-04-07T03:02:37.460Z,24.67
2023-04-07T03:05:07.114Z,22.30
2023-04-07T03:07:35.740Z,24.92
2023-04-07T03:10:08.014Z,25.65
2023-04-07T03:12:36.631Z,27.27
2023-04-07T03:15:05.615Z,26.20
2023-04-07T03:17:36.193Z,29.30
2023-04-07T03:20:05.302Z,27.17
2023-04-07T03:22:36.658Z,26.02
2023-04-07T03:25:11.337Z,27.33
2023-04-07T03:27:40.038Z,27.73
2023-04-07T03:30:11.327Z,30.35
2023-04-07T03:32:40.809Z,30.25
2023-04-07T03:35:10.387Z,28.15
2023-04-07T03:37:39.207Z,30.70
2023-04-07T03:40:15.085Z,27.83
2023-04-07T03:42:44.894Z,23.90
2023-04-07T03:45:15.711Z,28.48
2023-04-07T03:47:48.595Z,29.67
2023-04-07T03:50:18.423Z,27.17
2023-04-07T03:52:54.641Z,29.98
2023-04-07T03:55:29.607Z,29.25
2023-04-07T03:58:03.419Z,29.30
2023-04-07T04:00:34.838Z,30.63
2023-04-07T04:03:09.237Z,29.70
2023-04-07T04:05:43.045Z,28.88
2023-04-07T04:08:16.837Z,31.75
2023-04-07T04:10:47.063Z,33.72
2023-04-07T04:13:16.095Z,32.05
2023-04-07T04:15:45.039Z,29.95
2023-04-07T04:18:17.023Z,32.70
2023-04-07T04:20:45.723Z,34.10
2023-04-07T04:23:14.428Z,32.08
2023-04-07T04:25:44.064Z,33.75
2023-04-07T04:28:15.746Z,34.38
2023-04-07T04:30:44.390Z,32.13
2023-04-07T04:33:13.138Z,32.17
2023-04-07T04:35:50.074Z,32.17
2023-04-07T04:38:21.349Z,33.08
2023-04-07T04:41:02.839Z,35.60
2023-04-07T04:43:34.672Z,40.55
2023-04-07T04:46:04.937Z,32.92
2023-04-07T04:48:38.415Z,34.00
2023-04-07T04:51:08.998Z,36.15
2023-04-07T04:53:39.264Z,36.17
2023-04-07T04:56:09.403Z,33.13
2023-04-07T04:58:46.417Z,35.72
2023-04-07T05:01:22.721Z,37.85
2023-04-07T05:04:02.526Z,33.75
2023-04-07T05:06:32.677Z,34.58
2023-04-07T05:09:06.697Z,31.30
2023-04-07T05:11:43.111Z,34.28
2023-04-07T05:14:13.024Z,33.20
2023-04-07T05:16:46.187Z,32.38
2023-04-07T05:19:20.499Z,32.78
2023-04-07T05:21:50.120Z,32.13
2023-04-07T05:24:21.650Z,33.25
2023-04-07T05:26:57.136Z,36.60
2023-04-07T05:29:27.725Z,41.38
2023-04-07T05:31:57.411Z,32.78
2023-04-07T05:34:26.962Z,30.10
2023-04-07T05:36:57.597Z,30.48
2023-04-07T05:39:27.117Z,33.63
2023-04-07T05:41:58.134Z,35.30
2023-04-07T05:44:30.321Z,33.53
2023-04-07T05:46:58.918Z,31.23
2023-04-07T05:49:29.729Z,32.63
2023-04-07T05:52:05.986Z,37.95
2023-04-07T05:54:37.946Z,32.78
2023-04-07T05:57:07.967Z,32.50
2023-04-07T05:59:39.024Z,32.80
2023-04-07T06:02:08.579Z,33.30
2023-04-07T06:04:39.532Z,34.55
2023-04-07T06:07:09.766Z,31.05
2023-04-07T06:09:38.386Z,33.65
2023-04-07T06:12:07.115Z,31.95
2023-04-07T06:14:36.100Z,33.17
2023-04-07T06:17:06.356Z,33.50
2023-04-07T06:19:35.132Z,32.70
2023-04-07T06:22:03.655Z,28.00
2023-04-07T06:24:33.046Z,33.40
2023-04-07T06:27:02.042Z,33.80
2023-04-07T06:29:30.686Z,37.58
2023-04-07T06:31:59.405Z,30.85
2023-04-07T06:34:29.493Z,31.38
2023-04-07T06:36:59.048Z,30.38
2023-04-07T06:39:28.950Z,35.20
2023-04-07T06:41:57.783Z,28.23
2023-04-07T06:44:26.526Z,29.65
2023-04-07T06:46:55.678Z,34.58
2023-04-07T06:49:24.310Z,30.90
2023-04-07T06:51:55.544Z,33.60
2023-04-07T06:54:24.138Z,31.45
2023-04-07T06:56:54.265Z,28.90
2023-04-07T06:59:23.224Z,27.05
2023-04-07T07:01:51.835Z,26.75
2023-04-07T07:04:20.496Z,26.08
2023-04-07T07:06:49.121Z,26.73
2023-04-07T07:09:19.319Z,27.17
2023-04-07T07:11:48.068Z,25.02
2023-04-07T07:14:16.672Z,21.33
2023-04-07T07:16:45.272Z,25.92
2023-04-07T07:19:14.506Z,25.15
2023-04-07T07:21:43.082Z,25.58
2023-04-07T07:24:11.604Z,24.40
2023-04-07T07:26:43.560Z,22.25
2023-04-07T07:29:13.177Z,25.65
2023-04-07T07:31:41.823Z,29.48
2023-04-07T07:34:10.407Z,22.05
2023-04-07T07:36:39.222Z,22.42
2023-04-07T07:39:07.915Z,22.30
2023-04-07T07:41:36.723Z,22.23
2023-04-07T07:44:06.642Z,20.83
2023-04-07T07:46:35.293Z,21.40
2023-04-07T07:49:05.256Z,18.67
2023-04-07T07:51:33.850Z,21.38
2023-04-07T07:54:02.378Z,22.33
2023-04-07T07:56:31.153Z,19.75
2023-04-07T07:59:00.017Z,17.15
2023-04-07T08:01:30.041Z,13.43
2023-04-07T08:03:59.065Z,17.02
2023-04-07T08:06:29.215Z,16.70
2023-04-07T08:08:58.178Z,11.18
2023-04-07T08:11:26.837Z,14.63
2023-04-07T08:13:55.695Z,13.52
2023-04-07T08:16:24.637Z,13.02
2023-04-07T08:18:54.684Z,12.48
2023-04-07T08:21:23.248Z,14.45
2023-04-07T08:23:51.898Z,13.85
2023-04-07T08:26:21.222Z,14.00
2023-04-07T08:28:51.440Z,10.77
2023-04-07T08:31:20.625Z,8.48
2023-04-07T08:33:53.740Z,11.32
2023-04-07T08:36:23.760Z,8.05
2023-04-07T08:38:52.597Z,10.13
2023-04-07T08:41:28.855Z,10.43
2023-04-07T08:43:58.928Z,8.15
2023-04-07T08:46:27.848Z,7.40
2023-04-07T08:48:58.098Z,9.50
2023-04-07T08:51:31.826Z,7.43
2023-04-07T08:54:06.744Z,12.07
2023-04-07T08:56:35.424Z,6.93
2023-04-07T08:59:05.040Z,8.25
2023-04-07T09:01:35.905Z,8.18
2023-04-07T09:04:06.015Z,7.72
2023-04-07T09:06:36.561Z,6.85
2023-04-07T09:09:06.879Z,6.50
2023-04-07T09:11:37.705Z,6.47
2023-04-07T09:14:06.400Z,7.82
2023-04-07T09:16:35.228Z,7.80
2023-04-07T09:19:03.898Z,7.50
2023-04-07T09:21:52.361Z,6.47
2023-04-07T09:24:25.620Z,6.88
2023-04-07T09:27:13.506Z,7.72
2023-04-07T09:29:45.943Z,7.07
2023-04-07T09:32:23.356Z,8.52
2023-04-07T09:35:00.099Z,11.23
2023-04-07T09:37:30.067Z,9.95
2023-04-07T09:39:59.054Z,8.80
2023-04-07T09:42:30.766Z,7.20
2023-04-07T09:44:59.913Z,9.30
2023-04-07T09:47:29.996Z,11.80
2023-04-07T09:50:06.505Z,9.50
2023-04-07T09:52:52.936Z,10.07
2023-04-07T09:55:22.773Z,11.02
2023-04-07T09:57:52.124Z,9.95
2023-04-07T10:00:20.776Z,9.35
2023-04-07T10:02:51.322Z,7.47
2023-04-07T10:05:22.088Z,11.35
2023-04-07T10:07:52.596Z,8.45
2023-04-07T10:10:21.283Z,7.90
2023-04-07T10:12:51.152Z,10.80
2023-04-07T10:15:19.744Z,9.80
2023-04-07T10:17:49.245Z,12.82
2023-04-07T10:20:20.935Z,10.00
2023-04-07T10:22:52.201Z,9.38
2023-04-07T10:25:23.991Z,9.68
2023-04-07T10:27:56.393Z,12.25
2023-04-07T10:30:27.611Z,9.18
2023-04-07T10:32:56.419Z,9.18
2023-04-07T10:35:25.618Z,10.93
2023-04-07T10:38:15.205Z,11.38
2023-04-07T10:40:44.731Z,10.30
2023-04-07T10:43:13.789Z,9.10
2023-04-07T10:46:00.653Z,10.20
2023-04-07T10:48:32.905Z,8.15
2023-04-07T10:51:19.044Z,6.97
2023-04-07T10:54:27.903Z,8.98
2023-04-07T10:57:14.096Z,8.05
2023-04-07T11:00:00.827Z,12.18
2023-04-07T11:02:36.466Z,7.97
2023-04-07T11:05:05.875Z,12.90
2023-04-07T11:07:57.745Z,10.90
2023-04-07T11:10:26.643Z,9.30
2023-04-07T11:13:05.169Z,13.13
2023-04-07T11:15:35.490Z,12.00
2023-04-07T11:18:18.607Z,11.73
2023-04-07T11:20:53.150Z,12.93
2023-04-07T11:23:25.294Z,12.57
2023-04-07T11:26:01.235Z,12.55
2023-04-07T11:28:31.910Z,13.05
2023-04-07T11:31:01.044Z,12.45
2023-04-07T11:33:31.467Z,11.65
2023-04-07T11:36:01.748Z,12.70
2023-04-07T11:38:35.779Z,13.85
2023-04-07T11:41:12.929Z,12.40
2023-04-07T11:43:43.108Z,14.27
2023-04-07T11:46:13.662Z,12.65
2023-04-07T11:48:43.907Z,14.52
2023-04-07T11:51:19.173Z,14.23
2023-04-07T11:53:48.936Z,10.90
2023-04-07T11:56:18.582Z,12.90
2023-04-07T11:58:52.743Z,11.60
2023-04-07T12:01:22.091Z,12.98
2023-04-07T12:03:59.997Z,14.98
2023-04-07T12:06:30.619Z,12.02
2023-04-07T12:08:59.204Z,12.38
2023-04-07T12:11:27.812Z,14.25
2023-04-07T12:13:57.795Z,14.48
2023-04-07T12:16:26.458Z,16.77
2023-04-07T12:18:55.214Z,21.40
2023-04-07T12:21:24.264Z,19.15
2023-04-07T12:23:52.863Z,19.15
2023-04-07T12:26:23.377Z,16.77
2023-04-07T12:28:52.753Z,18.42
2023-04-07T12:31:22.785Z,15.63
2023-04-07T12:33:51.489Z,17.08
2023-04-07T12:36:20.197Z,15.80
2023-04-07T12:38:48.913Z,17.55
2023-04-07T12:41:17.690Z,17.05
2023-04-07T12:43:47.064Z,18.65
2023-04-07T12:46:15.996Z,22.70
2023-04-07T12:48:46.021Z,20.23
2023-04-07T12:51:14.873Z,21.15
2023-04-07T12:53:43.665Z,19.10
2023-04-07T12:56:13.104Z,18.75
2023-04-07T12:58:41.779Z,18.05
2023-04-07T13:01:10.754Z,14.77
2023-04-07T13:03:39.586Z,15.32
2023-04-07T13:06:10.783Z,17.52
2023-04-07T13:08:39.688Z,16.35
2023-04-07T13:11:11.164Z,19.02
2023-04-07T13:13:39.922Z,13.23
2023-04-07T13:16:09.489Z,13.50
2023-04-07T13:18:38.243Z,14.48
2023-04-07T13:21:38.203Z,15.50
2023-04-07T13:23:57.517Z,15.48
2023-04-07T13:26:26.596Z,19.23
2023-04-07T13:28:55.398Z,16.27
2023-04-07T13:31:24.008Z,16.20
2023-04-07T13:33:52.656Z,14.75
2023-04-07T13:36:23.138Z,14.55
2023-04-07T13:38:52.106Z,16.67
2023-04-07T13:41:22.523Z,17.92
2023-04-07T13:43:51.234Z,16.13
2023-04-07T13:46:28.436Z,16.63
2023-04-07T13:48:57.886Z,17.80
2023-04-07T13:51:28.052Z,16.48
2023-04-07T13:53:56.977Z,14.30
2023-04-07T13:56:27.052Z,16.30
2023-04-07T13:58:55.957Z,14.10
2023-04-07T14:01:24.916Z,14.93
2023-04-07T14:03:53.825Z,15.98
2023-04-07T14:06:23.015Z,17.13
2023-04-07T14:08:51.907Z,19.17
2023-04-07T14:11:22.171Z,17.88
2023-04-07T14:13:53.736Z,19.75
2023-04-07T14:16:23.006Z,15.50
2023-04-07T14:18:51.768Z,14.30
2023-04-07T14:21:20.452Z,14.85
2023-04-07T14:23:49.033Z,17.48
2023-04-07T14:26:17.766Z,17.20
2023-04-07T14:28:47.471Z,16.95
2023-04-07T14:31:18.152Z,19.45
2023-04-07T14:33:47.459Z,17.88
2023-04-07T14:36:17.302Z,16.90
2023-04-07T14:38:46.245Z,16.70
2023-04-07T14:41:14.884Z,17.70
2023-04-07T14:43:43.753Z,18.60
2023-04-07T14:46:14.931Z,22.98
2023-04-07T14:48:46.521Z,19.23
2023-04-07T14:51:15.514Z,19.48
2023-04-07T14:53:45.977Z,17.50
2023-04-07T14:56:14.959Z,17.00
2023-04-07T14:58:43.571Z,13.27
2023-04-07T15:01:12.322Z,15.85
2023-04-07T15:03:42.210Z,15.45
2023-04-07T15:06:13.768Z,17.67
2023-04-07T15:08:42.399Z,15.95
2023-04-07T15:11:11.470Z,14.65
2023-04-07T15:13:40.130Z,13.88
2023-04-07T15:16:10.584Z,14.60
2023-04-07T15:18:40.936Z,14.27
2023-04-07T15:21:09.997Z,16.15
2023-04-07T15:23:41.551Z,13.98
2023-04-07T15:26:11.263Z,15.15
2023-04-07T15:28:40.138Z,18.13
2023-04-07T15:31:10.071Z,18.48
2023-04-07T15:33:39.868Z,14.68
2023-04-07T15:36:09.434Z,14.65
2023-04-07T15:38:40.479Z,14.85
2023-04-07T15:41:09.461Z,15.10
2023-04-07T15:43:38.174Z,13.57
2023-04-07T15:46:06.909Z,19.33
2023-04-07T15:48:35.536Z,12.43
2023-04-07T15:51:04.248Z,15.18
2023-04-07T15:53:32.955Z,14.90
2023-04-07T15:56:03.090Z,13.90
2023-04-07T15:58:32.973Z,15.27
2023-04-07T16:01:01.757Z,15.52
2023-04-07T16:03:32.082Z,17.23
2023-04-07T16:06:00.802Z,15.02
2023-04-07T16:08:29.541Z,14.27
2023-04-07T16:10:58.131Z,15.77
2023-04-07T16:13:28.360Z,13.45
2023-04-07T16:15:57.923Z,16.33
2023-04-07T16:18:30.269Z,13.93
2023-04-07T16:20:58.967Z,14.15
2023-04-07T16:23:27.516Z,16.25
2023-04-07T16:25:56.222Z,11.18
2023-04-07T16:28:24.822Z,14.82
2023-04-07T16:30:54.767Z,13.98
2023-04-07T16:33:25.479Z,13.65
2023-04-07T16:35:54.621Z,15.32
2023-04-07T16:38:23.386Z,18.63
2023-04-07T16:41:03.311Z,19.45
2023-04-07T16:43:33.304Z,15.70
2023-04-07T16:46:04.153Z,13.90
2023-04-07T16:48:33.299Z,16.30
2023-04-07T16:51:02.100Z,16.95
2023-04-07T16:53:30.661Z,17.65
2023-04-07T16:55:59.342Z,11.50
2023-04-07T16:58:28.069Z,16.55
2023-04-07T17:00:56.682Z,14.60
2023-04-07T17:03:26.783Z,14.63
2023-04-07T17:05:55.586Z,16.85
2023-04-07T17:08:25.796Z,19.40
2023-04-07T17:10:54.397Z,14.55
2023-04-07T17:13:23.480Z,17.15
2023-04-07T17:15:52.088Z,17.70
2023-04-07T17:18:21.047Z,23.60
2023-04-07T17:20:51.885Z,18.98
2023-04-07T17:23:20.746Z,21.55
2023-04-07T17:25:50.592Z,17.95
2023-04-07T17:28:19.146Z,11.02
2023-04-07T17:30:47.991Z,12.93
2023-04-07T17:33:16.582Z,11.43
2023-04-07T17:35:47.532Z,13.45
2023-04-07T17:38:17.701Z,10.23
2023-04-07T17:40:46.324Z,14.05
2023-04-07T17:43:14.883Z,11.65
2023-04-07T17:45:43.463Z,11.80
2023-04-07T17:48:12.191Z,14.60
2023-04-07T17:50:42.054Z,12.85
2023-04-07T17:53:10.630Z,15.65
2023-04-07T17:55:40.636Z,18.10
2023-04-07T17:58:09.757Z,27.33
2023-04-07T18:00:38.585Z,22.10
2023-04-07T18:03:07.721Z,17.23
2023-04-07T18:05:37.614Z,13.32
2023-04-07T18:08:06.423Z,12.95
2023-04-07T18:10:35.109Z,15.88
2023-04-07T18:13:06.557Z,12.32
2023-04-07T18:15:35.364Z,11.48
2023-04-07T18:18:03.997Z,12.32
2023-04-07T18:20:32.960Z,13.82
2023-04-07T18:23:02.068Z,10.77
2023-04-07T18:25:30.699Z,12.18
2023-04-07T18:27:59.424Z,11.95
2023-04-07T18:30:29.485Z,14.25
2023-04-07T18:32:58.194Z,12.57
2023-04-07T18:35:27.046Z,14.18
2023-04-07T18:37:56.991Z,12.35
2023-04-07T18:40:25.853Z,12.05
2023-04-07T18:42:55.500Z,14.68
2023-04-07T18:45:24.097Z,14.40
2023-04-07T18:47:54.013Z,12.20
2023-04-07T18:50:22.616Z,13.95
2023-04-07T18:52:51.507Z,15.30
2023-04-07T18:55:20.781Z,12.73
2023-04-07T18:57:49.545Z,10.25
2023-04-07T19:00:18.308Z,14.63
2023-04-07T19:02:47.494Z,12.43
2023-04-07T19:05:20.929Z,10.25
2023-04-07T19:07:51.133Z,12.43
2023-04-07T19:10:19.830Z,12.95
2023-04-07T19:12:48.396Z,11.95
2023-04-07T19:15:17.065Z,11.02
2023-04-07T19:17:45.735Z,14.07
2023-04-07T19:20:14.390Z,12.57
2023-04-07T19:22:46.917Z,10.18
2023-04-07T19:25:15.741Z,9.35
2023-04-07T19:27:47.095Z,10.85
2023-04-07T19:30:16.156Z,15.63
2023-04-07T19:32:44.867Z,12.77
2023-04-07T19:35:13.478Z,12.13
2023-04-07T19:37:42.171Z,20.83
2023-04-07T19:40:12.593Z,15.07
2023-04-07T19:42:42.330Z,14.05
2023-04-07T19:45:11.691Z,12.25
2023-04-07T19:47:40.258Z,15.05
2023-04-07T19:50:11.203Z,16.88
2023-04-07T19:52:39.973Z,13.68
2023-04-07T19:55:10.715Z,13.98
2023-04-07T19:57:41.370Z,14.90
2023-04-07T20:00:11.721Z,15.70
2023-04-07T20:02:49.506Z,15.65
2023-04-07T20:05:19.473Z,13.77
2023-04-07T20:07:48.147Z,17.10
2023-04-07T20:10:16.828Z,12.80
2023-04-07T20:12:46.805Z,13.80
2023-04-07T20:15:15.615Z,13.02
2023-04-07T20:17:45.682Z,14.88
2023-04-07T20:20:14.504Z,15.75
2023-04-07T20:22:43.097Z,13.90
2023-04-07T20:25:11.952Z,20.17
2023-04-07T20:27:40.681Z,17.05
2023-04-07T20:30:11.558Z,18.20
2023-04-07T20:32:40.466Z,16.48
2023-04-07T20:35:12.663Z,13.30
2023-04-07T20:37:42.093Z,15.38
2023-04-07T20:40:11.769Z,14.57
2023-04-07T20:42:40.346Z,15.00
2023-04-07T20:45:12.229Z,14.77
2023-04-07T20:47:40.913Z,14.80
2023-04-07T20:50:10.474Z,12.40
2023-04-07T20:52:40.330Z,18.55
2023-04-07T20:55:10.693Z,13.88
2023-04-07T20:57:40.528Z,19.27
2023-04-07T21:00:11.319Z,13.57
2023-04-07T21:02:40.156Z,14.88
2023-04-07T21:05:09.834Z,13.75
2023-04-07T21:07:38.524Z,13.95
2023-04-07T21:10:08.801Z,13.30
2023-04-07T21:12:37.769Z,13.60
2023-04-07T21:15:07.797Z,14.43
2023-04-07T21:17:38.158Z,15.00
2023-04-07T21:20:08.529Z,23.48
2023-04-07T21:22:37.208Z,18.02
2023-04-07T21:25:07.228Z,17.95
2023-04-07T21:27:38.130Z,15.43
2023-04-07T21:30:07.780Z,22.30
2023-04-07T21:32:38.070Z,17.42
2023-04-07T21:35:07.588Z,19.75
2023-04-07T21:37:36.162Z,13.27
2023-04-07T21:40:05.218Z,19.40
2023-04-07T21:42:33.851Z,16.58
2023-04-07T21:45:02.700Z,12.82
2023-04-07T21:47:31.581Z,10.98
2023-04-07T21:50:01.505Z,13.40
2023-04-07T21:52:30.487Z,20.13
2023-04-07T21:54:59.029Z,22.73
2023-04-07T21:57:27.759Z,14.63
2023-04-07T21:59:56.360Z,14.52
2023-04-07T22:02:25.195Z,14.40
2023-04-07T22:04:54.309Z,16.38
2023-04-07T22:07:24.433Z,13.57
2023-04-07T22:09:53.164Z,19.50
2023-04-07T22:12:21.729Z,15.90
2023-04-07T22:14:50.544Z,15.73
2023-04-07T22:17:19.191Z,21.80
2023-04-07T22:19:47.895Z,16.80
2023-04-07T22:22:16.497Z,19.92
2023-04-07T22:24:46.465Z,14.65
2023-04-07T22:27:15.086Z,14.02
2023-04-07T22:29:43.723Z,15.82
2023-04-07T22:32:12.337Z,13.02
2023-04-07T22:34:41.245Z,18.25
2023-04-07T22:37:10.063Z,19.33
2023-04-07T22:39:38.919Z,14.00
2023-04-07T22:42:08.839Z,13.38
2023-04-07T22:44:37.401Z,16.35
2023-04-07T22:47:06.084Z,16.27
2023-04-07T22:49:34.761Z,20.73
2023-04-07T22:52:03.421Z,16.52
2023-04-07T22:54:31.968Z,13.93
2023-04-07T22:57:01.782Z,16.38
2023-04-07T22:59:32.139Z,17.23
2023-04-07T23:02:01.139Z,18.42
2023-04-07T23:04:29.992Z,15.63
2023-04-07T23:06:58.611Z,16.88
2023-04-07T23:09:27.712Z,17.13
2023-04-07T23:11:56.795Z,15.60
2023-04-07T23:14:25.420Z,15.05
2023-04-07T23:16:56.089Z,11.82
2023-04-07T23:19:24.971Z,16.90
2023-04-07T23:21:53.624Z,15.77
2023-04-07T23:24:22.115Z,13.32
2023-04-07T23:26:50.722Z,14.88
2023-04-07T23:29:19.650Z,15.43
2023-04-07T23:31:48.690Z,14.30
2023-04-07T23:34:18.898Z,20.77
2023-04-07T23:36:47.498Z,15.30
2023-04-07T23:39:16.368Z,13.32
2023-04-07T23:41:44.941Z,17.77
2023-04-07T23:44:13.592Z,17.38
2023-04-07T23:46:42.175Z,14.18
2023-04-07T23:49:10.807Z,15.82
2023-04-07T23:51:40.719Z,16.70
2023-04-07T23:54:09.250Z,15.52
2023-04-07T23:56:37.812Z,16.25
2023-04-07T23:59:06.587Z,15.50
